메인 페이지
METAR-TAF:

METAR-TAF

공항 :

코지코드, 인도

위도: 11-08-24N, 경도: 75-57-00E, 고도: 104m

현재 날씨관측

예보는 1 시간 20분 전, 19:00시(UTC)에 발표되었습니다.
동북동14kt
온도 22°C
습도 94%
기압 1009 hPa
시정: 2000m
고도 300ft 상공 구름 보통
고도 1200ft 상공 구름 보통
고도 2500ft 상공 구름 조금, 적란운.
고도 8000ft 상공 흐림
뇌우, 비

METAR: VOCL 281900Z 06014KT 2000 TSRA SCT003 SCT012 FEW025CB OVC080 22/21 Q1009 BECMG 3000 -TSRA

시각: 01:50 (20:20 UTC)

예보

예보는 3 시간 20분 전, 17:00시(UTC)에 발표되었습니다.
예보 대상 시간: 28일 18시부터 29일 03시까지 (UTC)
여러 방향의 바람 3kt
시정: 4000m
고도 1200ft 상공 구름 보통
고도 2500ft 상공 구름 조금, 적란운.
고도 8000ft 상공 구름 많음
뇌우, 약한비
전환 중
28일 20시부터 28일 21시까지 (UTC)
시정: 3000m
고도 1500ft 상공 구름 보통
고도 8000ft 상공 구름 많음
비, 박무

TAF: VOCL 281700Z 2818/2903 VRB03KT 4000 -TSRA SCT012 FEW025CB BKN080 BECMG 2820/2821 3000 RA BR SCT015 BKN080

4,000개 이상의 공항 관측 자료 및 예보 (METAR 및 TAF 보고).

지도상에서 검색 가능한 기상관측소가 노란 점과 빨간 점으로 표시되어 있습니다.

기상관측소 명을 보려면 표시 위로 마우스를 이동하세요.

날씨 관측과 예보를 보려면 클릭하세요.

지도 변경 : 확대하려면 엑스 표시가 있는 녹색 버튼, 축소하려면 빼기 표시가 있는 녹색 버튼, 다음 페이지의 지도를 보려면 녹색 화살표를 클릭하세요.


METAR-TAF: